sensor_id;sensor_type;location;lat;lon;timestamp;P1;durP1;ratioP1;P2;durP2;ratioP2
70920;SDS011;58572;48.110;19.838;2023-09-08T00:01:11;7.30;;;3.78;;
70920;SDS011;58572;48.110;19.838;2023-09-08T00:03:38;5.65;;;3.90;;
70920;SDS011;58572;48.110;19.838;2023-09-08T00:06:05;6.53;;;3.75;;
70920;SDS011;58572;48.110;19.838;2023-09-08T00:08:33;7.78;;;4.15;;
70920;SDS011;58572;48.110;19.838;2023-09-08T00:11:00;6.90;;;3.78;;
70920;SDS011;58572;48.110;19.838;2023-09-08T00:13:27;9.38;;;3.90;;
70920;SDS011;58572;48.110;19.838;2023-09-08T00:15:55;7.05;;;4.28;;
70920;SDS011;58572;48.110;19.838;2023-09-08T00:18:22;9.07;;;4.30;;
70920;SDS011;58572;48.110;19.838;2023-09-08T00:20:49;10.70;;;4.28;;
70920;SDS011;58572;48.110;19.838;2023-09-08T00:23:17;7.25;;;4.18;;
70920;SDS011;58572;48.110;19.838;2023-09-08T00:25:44;7.47;;;4.75;;
70920;SDS011;58572;48.110;19.838;2023-09-08T00:28:11;9.18;;;4.10;;
70920;SDS011;58572;48.110;19.838;2023-09-08T00:30:38;6.60;;;4.07;;
70920;SDS011;58572;48.110;19.838;2023-09-08T00:33:06;7.60;;;4.35;;
70920;SDS011;58572;48.110;19.838;2023-09-08T00:35:34;9.90;;;4.40;;
70920;SDS011;58572;48.110;19.838;2023-09-08T00:38:01;8.10;;;4.38;;
70920;SDS011;58572;48.110;19.838;2023-09-08T00:40:28;7.28;;;4.25;;
70920;SDS011;58572;48.110;19.838;2023-09-08T00:42:56;6.70;;;4.30;;
70920;SDS011;58572;48.110;19.838;2023-09-08T00:45:23;8.63;;;4.47;;
70920;SDS011;58572;48.110;19.838;2023-09-08T00:47:52;7.80;;;4.88;;
70920;SDS011;58572;48.110;19.838;2023-09-08T00:50:21;10.00;;;4.53;;
70920;SDS011;58572;48.110;19.838;2023-09-08T00:52:49;8.05;;;4.55;;
70920;SDS011;58572;48.110;19.838;2023-09-08T00:55:16;9.05;;;4.30;;
70920;SDS011;58572;48.110;19.838;2023-09-08T00:57:44;7.75;;;4.78;;
70920;SDS011;58572;48.110;19.838;2023-09-08T01:00:12;9.25;;;4.85;;
70920;SDS011;58572;48.110;19.838;2023-09-08T01:02:40;8.10;;;4.70;;
70920;SDS011;58572;48.110;19.838;2023-09-08T01:05:10;8.30;;;5.05;;
70920;SDS011;58572;48.110;19.838;2023-09-08T01:07:39;8.02;;;4.22;;
70920;SDS011;58572;48.110;19.838;2023-09-08T01:10:08;7.25;;;4.63;;
70920;SDS011;58572;48.110;19.838;2023-09-08T01:12:36;7.00;;;4.55;;
70920;SDS011;58572;48.110;19.838;2023-09-08T01:15:03;8.40;;;4.63;;
70920;SDS011;58572;48.110;19.838;2023-09-08T01:17:31;6.55;;;4.20;;
70920;SDS011;58572;48.110;19.838;2023-09-08T01:20:00;10.20;;;4.72;;
70920;SDS011;58572;48.110;19.838;2023-09-08T01:22:38;8.45;;;4.65;;
70920;SDS011;58572;48.110;19.838;2023-09-08T01:25:24;7.43;;;4.40;;
70920;SDS011;58572;48.110;19.838;2023-09-08T01:27:53;7.60;;;4.82;;
70920;SDS011;58572;48.110;19.838;2023-09-08T01:30:23;11.20;;;4.72;;
70920;SDS011;58572;48.110;19.838;2023-09-08T01:32:53;7.38;;;4.30;;
70920;SDS011;58572;48.110;19.838;2023-09-08T01:35:21;7.80;;;4.70;;
70920;SDS011;58572;48.110;19.838;2023-09-08T01:40:15;7.47;;;4.80;;
70920;SDS011;58572;48.110;19.838;2023-09-08T01:42:45;7.80;;;4.38;;
70920;SDS011;58572;48.110;19.838;2023-09-08T01:45:12;7.40;;;4.50;;
70920;SDS011;58572;48.110;19.838;2023-09-08T01:47:39;7.10;;;4.78;;
70920;SDS011;58572;48.110;19.838;2023-09-08T01:50:07;8.25;;;4.93;;
70920;SDS011;58572;48.110;19.838;2023-09-08T01:52:34;8.20;;;5.25;;
70920;SDS011;58572;48.110;19.838;2023-09-08T01:55:01;6.55;;;4.55;;
70920;SDS011;58572;48.110;19.838;2023-09-08T01:57:28;9.07;;;5.13;;
70920;SDS011;58572;48.110;19.838;2023-09-08T01:59:56;7.57;;;5.10;;
70920;SDS011;58572;48.110;19.838;2023-09-08T02:02:23;8.70;;;4.85;;
70920;SDS011;58572;48.110;19.838;2023-09-08T02:04:50;7.45;;;4.78;;
70920;SDS011;58572;48.110;19.838;2023-09-08T02:07:18;7.07;;;4.72;;
70920;SDS011;58572;48.110;19.838;2023-09-08T02:09:45;7.18;;;4.72;;
70920;SDS011;58572;48.110;19.838;2023-09-08T02:12:12;8.88;;;5.07;;
70920;SDS011;58572;48.110;19.838;2023-09-08T02:14:39;7.35;;;4.85;;
70920;SDS011;58572;48.110;19.838;2023-09-08T02:17:07;8.70;;;5.35;;
70920;SDS011;58572;48.110;19.838;2023-09-08T02:19:35;8.40;;;4.82;;
70920;SDS011;58572;48.110;19.838;2023-09-08T02:22:02;8.48;;;5.07;;
70920;SDS011;58572;48.110;19.838;2023-09-08T02:24:29;8.40;;;5.28;;
70920;SDS011;58572;48.110;19.838;2023-09-08T02:26:56;8.48;;;5.25;;
70920;SDS011;58572;48.110;19.838;2023-09-08T02:29:24;7.32;;;4.60;;
70920;SDS011;58572;48.110;19.838;2023-09-08T02:31:51;7.43;;;5.03;;
70920;SDS011;58572;48.110;19.838;2023-09-08T02:34:20;10.70;;;5.13;;
70920;SDS011;58572;48.110;19.838;2023-09-08T02:36:47;7.95;;;5.50;;
70920;SDS011;58572;48.110;19.838;2023-09-08T02:39:16;9.27;;;5.20;;
70920;SDS011;58572;48.110;19.838;2023-09-08T02:41:43;10.30;;;5.50;;
70920;SDS011;58572;48.110;19.838;2023-09-08T02:44:10;8.70;;;5.65;;
70920;SDS011;58572;48.110;19.838;2023-09-08T02:46:37;10.98;;;5.32;;
70920;SDS011;58572;48.110;19.838;2023-09-08T02:49:06;7.40;;;5.18;;
70920;SDS011;58572;48.110;19.838;2023-09-08T02:51:34;7.40;;;5.00;;
70920;SDS011;58572;48.110;19.838;2023-09-08T02:54:01;8.52;;;5.00;;
70920;SDS011;58572;48.110;19.838;2023-09-08T02:56:29;8.07;;;5.05;;
70920;SDS011;58572;48.110;19.838;2023-09-08T02:58:56;7.90;;;5.05;;
70920;SDS011;58572;48.110;19.838;2023-09-08T03:01:23;7.53;;;5.13;;
70920;SDS011;58572;48.110;19.838;2023-09-08T03:03:50;8.40;;;5.28;;
70920;SDS011;58572;48.110;19.838;2023-09-08T03:06:18;9.73;;;4.85;;
70920;SDS011;58572;48.110;19.838;2023-09-08T03:08:48;8.57;;;5.40;;
70920;SDS011;58572;48.110;19.838;2023-09-08T03:11:15;7.32;;;5.18;;
70920;SDS011;58572;48.110;19.838;2023-09-08T03:13:42;9.15;;;5.53;;
70920;SDS011;58572;48.110;19.838;2023-09-08T03:16:09;9.93;;;5.50;;
70920;SDS011;58572;48.110;19.838;2023-09-08T03:18:37;8.68;;;5.00;;
70920;SDS011;58572;48.110;19.838;2023-09-08T03:21:05;10.85;;;5.60;;
70920;SDS011;58572;48.110;19.838;2023-09-08T03:23:36;8.93;;;5.57;;
70920;SDS011;58572;48.110;19.838;2023-09-08T03:26:05;7.93;;;4.97;;
70920;SDS011;58572;48.110;19.838;2023-09-08T03:28:34;7.47;;;4.90;;
70920;SDS011;58572;48.110;19.838;2023-09-08T03:31:02;7.95;;;4.97;;
70920;SDS011;58572;48.110;19.838;2023-09-08T03:33:30;8.32;;;5.35;;
70920;SDS011;58572;48.110;19.838;2023-09-08T03:35:56;9.55;;;5.50;;
70920;SDS011;58572;48.110;19.838;2023-09-08T03:38:23;7.65;;;5.40;;
70920;SDS011;58572;48.110;19.838;2023-09-08T03:40:50;10.40;;;5.35;;
70920;SDS011;58572;48.110;19.838;2023-09-08T03:43:19;7.15;;;4.85;;
70920;SDS011;58572;48.110;19.838;2023-09-08T03:45:46;10.23;;;4.82;;
70920;SDS011;58572;48.110;19.838;2023-09-08T03:48:13;11.30;;;5.63;;
70920;SDS011;58572;48.110;19.838;2023-09-08T03:50:41;8.68;;;5.63;;
70920;SDS011;58572;48.110;19.838;2023-09-08T03:53:10;8.38;;;4.97;;
70920;SDS011;58572;48.110;19.838;2023-09-08T03:55:38;10.38;;;5.70;;
70920;SDS011;58572;48.110;19.838;2023-09-08T03:58:05;8.73;;;5.47;;
70920;SDS011;58572;48.110;19.838;2023-09-08T04:00:33;8.23;;;5.22;;
70920;SDS011;58572;48.110;19.838;2023-09-08T04:03:01;8.63;;;4.78;;
70920;SDS011;58572;48.110;19.838;2023-09-08T04:05:28;9.88;;;5.68;;
70920;SDS011;58572;48.110;19.838;2023-09-08T04:07:55;9.55;;;4.95;;
70920;SDS011;58572;48.110;19.838;2023-09-08T04:10:23;9.43;;;5.32;;
70920;SDS011;58572;48.110;19.838;2023-09-08T04:12:50;8.73;;;5.22;;
70920;SDS011;58572;48.110;19.838;2023-09-08T04:15:17;7.85;;;5.25;;
70920;SDS011;58572;48.110;19.838;2023-09-08T04:17:46;13.90;;;6.40;;
70920;SDS011;58572;48.110;19.838;2023-09-08T04:20:15;11.07;;;6.20;;
70920;SDS011;58572;48.110;19.838;2023-09-08T04:22:42;7.38;;;4.93;;
70920;SDS011;58572;48.110;19.838;2023-09-08T04:25:09;8.23;;;5.07;;
70920;SDS011;58572;48.110;19.838;2023-09-08T04:27:37;8.90;;;5.28;;
70920;SDS011;58572;48.110;19.838;2023-09-08T04:30:05;8.90;;;5.28;;
70920;SDS011;58572;48.110;19.838;2023-09-08T04:32:33;9.35;;;5.38;;
70920;SDS011;58572;48.110;19.838;2023-09-08T04:35:04;8.20;;;5.50;;
70920;SDS011;58572;48.110;19.838;2023-09-08T04:37:32;8.38;;;5.53;;
70920;SDS011;58572;48.110;19.838;2023-09-08T04:39:59;8.05;;;5.25;;
70920;SDS011;58572;48.110;19.838;2023-09-08T04:42:27;9.77;;;5.45;;
70920;SDS011;58572;48.110;19.838;2023-09-08T04:44:54;9.43;;;5.43;;
70920;SDS011;58572;48.110;19.838;2023-09-08T04:47:21;8.55;;;5.43;;
70920;SDS011;58572;48.110;19.838;2023-09-08T04:52:17;9.82;;;4.97;;
70920;SDS011;58572;48.110;19.838;2023-09-08T04:54:44;8.15;;;5.43;;
70920;SDS011;58572;48.110;19.838;2023-09-08T04:57:11;9.85;;;5.75;;
70920;SDS011;58572;48.110;19.838;2023-09-08T04:59:39;10.73;;;5.70;;
70920;SDS011;58572;48.110;19.838;2023-09-08T05:04:33;9.25;;;5.30;;
70920;SDS011;58572;48.110;19.838;2023-09-08T05:07:00;9.65;;;5.97;;
70920;SDS011;58572;48.110;19.838;2023-09-08T05:09:28;10.90;;;5.93;;
70920;SDS011;58572;48.110;19.838;2023-09-08T05:11:56;7.82;;;5.47;;
70920;SDS011;58572;48.110;19.838;2023-09-08T05:14:24;7.32;;;5.43;;
70920;SDS011;58572;48.110;19.838;2023-09-08T05:16:51;9.32;;;5.63;;
70920;SDS011;58572;48.110;19.838;2023-09-08T05:19:21;8.68;;;5.65;;
70920;SDS011;58572;48.110;19.838;2023-09-08T05:21:50;8.73;;;5.72;;
70920;SDS011;58572;48.110;19.838;2023-09-08T05:24:17;9.00;;;5.93;;
70920;SDS011;58572;48.110;19.838;2023-09-08T05:26:47;9.35;;;5.40;;
70920;SDS011;58572;48.110;19.838;2023-09-08T05:29:15;10.18;;;5.57;;
70920;SDS011;58572;48.110;19.838;2023-09-08T05:31:42;9.25;;;6.32;;
70920;SDS011;58572;48.110;19.838;2023-09-08T05:34:09;9.68;;;5.55;;
70920;SDS011;58572;48.110;19.838;2023-09-08T05:39:05;8.65;;;5.43;;
70920;SDS011;58572;48.110;19.838;2023-09-08T05:41:32;9.45;;;5.38;;
70920;SDS011;58572;48.110;19.838;2023-09-08T05:44:01;8.48;;;5.68;;
70920;SDS011;58572;48.110;19.838;2023-09-08T05:46:28;7.97;;;5.18;;
70920;SDS011;58572;48.110;19.838;2023-09-08T05:48:56;9.38;;;5.85;;
70920;SDS011;58572;48.110;19.838;2023-09-08T05:51:23;13.05;;;6.30;;
70920;SDS011;58572;48.110;19.838;2023-09-08T05:56:18;9.30;;;5.38;;
70920;SDS011;58572;48.110;19.838;2023-09-08T05:58:45;9.38;;;6.05;;
70920;SDS011;58572;48.110;19.838;2023-09-08T06:01:14;7.38;;;5.28;;
70920;SDS011;58572;48.110;19.838;2023-09-08T06:03:41;10.25;;;5.95;;
70920;SDS011;58572;48.110;19.838;2023-09-08T06:06:09;8.57;;;5.72;;
70920;SDS011;58572;48.110;19.838;2023-09-08T06:08:36;8.82;;;5.50;;
70920;SDS011;58572;48.110;19.838;2023-09-08T06:11:03;9.45;;;5.45;;
70920;SDS011;58572;48.110;19.838;2023-09-08T06:13:30;7.45;;;4.97;;
70920;SDS011;58572;48.110;19.838;2023-09-08T06:15:57;9.68;;;6.10;;
70920;SDS011;58572;48.110;19.838;2023-09-08T06:18:27;8.23;;;5.32;;
70920;SDS011;58572;48.110;19.838;2023-09-08T06:20:55;8.73;;;5.43;;
70920;SDS011;58572;48.110;19.838;2023-09-08T06:23:23;9.55;;;5.60;;
70920;SDS011;58572;48.110;19.838;2023-09-08T06:25:50;7.88;;;5.10;;
70920;SDS011;58572;48.110;19.838;2023-09-08T06:28:17;7.70;;;5.43;;
70920;SDS011;58572;48.110;19.838;2023-09-08T06:30:44;9.73;;;5.47;;
70920;SDS011;58572;48.110;19.838;2023-09-08T06:33:11;8.75;;;5.60;;
70920;SDS011;58572;48.110;19.838;2023-09-08T06:35:40;9.07;;;5.35;;
70920;SDS011;58572;48.110;19.838;2023-09-08T06:38:07;9.82;;;5.65;;
70920;SDS011;58572;48.110;19.838;2023-09-08T06:40:34;7.97;;;5.00;;
70920;SDS011;58572;48.110;19.838;2023-09-08T06:45:28;9.07;;;5.47;;
70920;SDS011;58572;48.110;19.838;2023-09-08T06:47:55;8.25;;;5.35;;
70920;SDS011;58572;48.110;19.838;2023-09-08T06:50:23;9.20;;;4.78;;
70920;SDS011;58572;48.110;19.838;2023-09-08T06:52:52;8.27;;;5.40;;
70920;SDS011;58572;48.110;19.838;2023-09-08T06:55:20;9.32;;;5.57;;
70920;SDS011;58572;48.110;19.838;2023-09-08T06:57:47;9.32;;;5.90;;
70920;SDS011;58572;48.110;19.838;2023-09-08T07:00:15;8.10;;;5.38;;
70920;SDS011;58572;48.110;19.838;2023-09-08T07:02:45;9.32;;;5.43;;
70920;SDS011;58572;48.110;19.838;2023-09-08T07:05:14;8.25;;;4.75;;
70920;SDS011;58572;48.110;19.838;2023-09-08T07:10:11;9.95;;;5.13;;
70920;SDS011;58572;48.110;19.838;2023-09-08T07:12:38;9.55;;;5.15;;
70920;SDS011;58572;48.110;19.838;2023-09-08T07:15:06;8.05;;;5.43;;
70920;SDS011;58572;48.110;19.838;2023-09-08T07:17:33;8.38;;;4.80;;
70920;SDS011;58572;48.110;19.838;2023-09-08T07:20:00;8.38;;;5.53;;
70920;SDS011;58572;48.110;19.838;2023-09-08T07:22:28;9.68;;;5.15;;
70920;SDS011;58572;48.110;19.838;2023-09-08T07:24:55;8.48;;;5.05;;
70920;SDS011;58572;48.110;19.838;2023-09-08T07:27:24;6.85;;;4.75;;
70920;SDS011;58572;48.110;19.838;2023-09-08T07:29:51;8.18;;;4.38;;
70920;SDS011;58572;48.110;19.838;2023-09-08T07:32:18;8.15;;;5.10;;
70920;SDS011;58572;48.110;19.838;2023-09-08T07:34:45;7.63;;;4.95;;
70920;SDS011;58572;48.110;19.838;2023-09-08T07:37:20;7.35;;;4.50;;
70920;SDS011;58572;48.110;19.838;2023-09-08T07:39:47;9.60;;;5.35;;
70920;SDS011;58572;48.110;19.838;2023-09-08T07:42:14;8.02;;;5.20;;
70920;SDS011;58572;48.110;19.838;2023-09-08T07:47:10;7.32;;;4.30;;
70920;SDS011;58572;48.110;19.838;2023-09-08T07:49:38;8.77;;;5.35;;
70920;SDS011;58572;48.110;19.838;2023-09-08T07:52:05;7.55;;;5.00;;
70920;SDS011;58572;48.110;19.838;2023-09-08T07:54:32;7.43;;;5.22;;
70920;SDS011;58572;48.110;19.838;2023-09-08T07:56:59;8.82;;;4.93;;
70920;SDS011;58572;48.110;19.838;2023-09-08T07:59:26;7.45;;;5.05;;
70920;SDS011;58572;48.110;19.838;2023-09-08T08:01:55;7.88;;;4.32;;
70920;SDS011;58572;48.110;19.838;2023-09-08T08:04:22;9.00;;;5.28;;
70920;SDS011;58572;48.110;19.838;2023-09-08T08:06:49;7.70;;;4.95;;
70920;SDS011;58572;48.110;19.838;2023-09-08T08:09:17;7.88;;;4.25;;
70920;SDS011;58572;48.110;19.838;2023-09-08T08:11:44;8.48;;;4.75;;
70920;SDS011;58572;48.110;19.838;2023-09-08T08:14:11;8.40;;;4.63;;
70920;SDS011;58572;48.110;19.838;2023-09-08T08:16:39;8.70;;;5.30;;
70920;SDS011;58572;48.110;19.838;2023-09-08T08:19:07;10.13;;;4.97;;
70920;SDS011;58572;48.110;19.838;2023-09-08T08:21:35;7.50;;;4.20;;
70920;SDS011;58572;48.110;19.838;2023-09-08T08:24:02;8.05;;;4.50;;
70920;SDS011;58572;48.110;19.838;2023-09-08T08:26:30;8.98;;;4.68;;
70920;SDS011;58572;48.110;19.838;2023-09-08T08:28:58;6.70;;;4.60;;
70920;SDS011;58572;48.110;19.838;2023-09-08T08:33:52;7.55;;;4.30;;
70920;SDS011;58572;48.110;19.838;2023-09-08T08:36:21;8.32;;;4.00;;
70920;SDS011;58572;48.110;19.838;2023-09-08T08:38:48;6.63;;;4.05;;
70920;SDS011;58572;48.110;19.838;2023-09-08T08:41:15;7.05;;;4.50;;
70920;SDS011;58572;48.110;19.838;2023-09-08T08:43:45;7.85;;;4.22;;
70920;SDS011;58572;48.110;19.838;2023-09-08T08:46:12;9.52;;;4.60;;
70920;SDS011;58572;48.110;19.838;2023-09-08T08:48:41;6.43;;;3.50;;
70920;SDS011;58572;48.110;19.838;2023-09-08T08:51:11;7.22;;;3.92;;
70920;SDS011;58572;48.110;19.838;2023-09-08T08:53:52;7.97;;;4.28;;
70920;SDS011;58572;48.110;19.838;2023-09-08T08:59:10;8.23;;;4.32;;
70920;SDS011;58572;48.110;19.838;2023-09-08T09:01:37;8.20;;;4.65;;
70920;SDS011;58572;48.110;19.838;2023-09-08T09:04:08;6.40;;;3.70;;
70920;SDS011;58572;48.110;19.838;2023-09-08T09:06:36;8.38;;;3.97;;
70920;SDS011;58572;48.110;19.838;2023-09-08T09:09:06;6.65;;;3.90;;
70920;SDS011;58572;48.110;19.838;2023-09-08T09:11:36;6.40;;;3.85;;
70920;SDS011;58572;48.110;19.838;2023-09-08T09:14:03;6.97;;;4.15;;
70920;SDS011;58572;48.110;19.838;2023-09-08T09:16:30;6.72;;;4.20;;
70920;SDS011;58572;48.110;19.838;2023-09-08T09:18:59;6.63;;;4.18;;
70920;SDS011;58572;48.110;19.838;2023-09-08T09:21:40;7.05;;;3.58;;
70920;SDS011;58572;48.110;19.838;2023-09-08T09:24:14;6.35;;;4.03;;
70920;SDS011;58572;48.110;19.838;2023-09-08T09:26:42;8.55;;;5.10;;
70920;SDS011;58572;48.110;19.838;2023-09-08T09:29:11;6.18;;;4.00;;
70920;SDS011;58572;48.110;19.838;2023-09-08T09:31:50;6.38;;;3.78;;
70920;SDS011;58572;48.110;19.838;2023-09-08T09:34:19;7.28;;;3.50;;
70920;SDS011;58572;48.110;19.838;2023-09-08T09:36:47;6.18;;;3.65;;
70920;SDS011;58572;48.110;19.838;2023-09-08T09:39:20;6.65;;;3.63;;
70920;SDS011;58572;48.110;19.838;2023-09-08T09:44:16;6.60;;;3.42;;
70920;SDS011;58572;48.110;19.838;2023-09-08T09:46:43;7.57;;;4.15;;
70920;SDS011;58572;48.110;19.838;2023-09-08T09:49:11;6.22;;;3.60;;
70920;SDS011;58572;48.110;19.838;2023-09-08T09:51:40;7.20;;;3.83;;
70920;SDS011;58572;48.110;19.838;2023-09-08T09:54:09;6.50;;;4.03;;
70920;SDS011;58572;48.110;19.838;2023-09-08T09:56:38;6.75;;;4.00;;
70920;SDS011;58572;48.110;19.838;2023-09-08T09:59:07;7.38;;;4.05;;
70920;SDS011;58572;48.110;19.838;2023-09-08T10:01:35;7.82;;;4.32;;
70920;SDS011;58572;48.110;19.838;2023-09-08T10:04:03;8.10;;;4.28;;
70920;SDS011;58572;48.110;19.838;2023-09-08T10:06:31;6.70;;;3.70;;
70920;SDS011;58572;48.110;19.838;2023-09-08T10:08:59;5.45;;;3.95;;
70920;SDS011;58572;48.110;19.838;2023-09-08T10:11:29;6.35;;;3.95;;
70920;SDS011;58572;48.110;19.838;2023-09-08T10:14:03;6.50;;;3.80;;
70920;SDS011;58572;48.110;19.838;2023-09-08T10:16:34;6.60;;;3.92;;
70920;SDS011;58572;48.110;19.838;2023-09-08T10:19:01;5.68;;;3.92;;
70920;SDS011;58572;48.110;19.838;2023-09-08T10:21:36;7.85;;;3.90;;
70920;SDS011;58572;48.110;19.838;2023-09-08T10:24:08;6.35;;;4.00;;
70920;SDS011;58572;48.110;19.838;2023-09-08T10:26:43;6.35;;;3.70;;
70920;SDS011;58572;48.110;19.838;2023-09-08T10:29:14;6.60;;;3.58;;
70920;SDS011;58572;48.110;19.838;2023-09-08T10:31:42;6.05;;;3.65;;
70920;SDS011;58572;48.110;19.838;2023-09-08T10:34:10;8.48;;;3.70;;
70920;SDS011;58572;48.110;19.838;2023-09-08T10:36:38;6.43;;;4.07;;
70920;SDS011;58572;48.110;19.838;2023-09-08T10:45:00;7.53;;;3.58;;
70920;SDS011;58572;48.110;19.838;2023-09-08T10:47:32;5.88;;;3.83;;
70920;SDS011;58572;48.110;19.838;2023-09-08T10:50:06;8.05;;;3.70;;
70920;SDS011;58572;48.110;19.838;2023-09-08T10:52:34;7.20;;;3.75;;
70920;SDS011;58572;48.110;19.838;2023-09-08T10:55:01;7.03;;;3.97;;
70920;SDS011;58572;48.110;19.838;2023-09-08T10:57:31;7.80;;;3.95;;
70920;SDS011;58572;48.110;19.838;2023-09-08T11:00:04;7.18;;;3.60;;
70920;SDS011;58572;48.110;19.838;2023-09-08T11:02:37;6.32;;;3.70;;
70920;SDS011;58572;48.110;19.838;2023-09-08T11:05:07;5.88;;;3.50;;
70920;SDS011;58572;48.110;19.838;2023-09-08T11:07:35;7.57;;;3.40;;
70920;SDS011;58572;48.110;19.838;2023-09-08T11:10:03;7.95;;;3.70;;
70920;SDS011;58572;48.110;19.838;2023-09-08T11:12:33;5.78;;;3.78;;
70920;SDS011;58572;48.110;19.838;2023-09-08T11:15:01;7.65;;;3.70;;
70920;SDS011;58572;48.110;19.838;2023-09-08T11:17:31;5.68;;;3.47;;
70920;SDS011;58572;48.110;19.838;2023-09-08T11:19:59;7.18;;;3.88;;
70920;SDS011;58572;48.110;19.838;2023-09-08T11:22:29;6.03;;;3.45;;
70920;SDS011;58572;48.110;19.838;2023-09-08T11:24:56;7.60;;;3.67;;
70920;SDS011;58572;48.110;19.838;2023-09-08T11:27:23;6.03;;;4.07;;
70920;SDS011;58572;48.110;19.838;2023-09-08T11:29:51;6.68;;;3.53;;
70920;SDS011;58572;48.110;19.838;2023-09-08T11:34:47;8.40;;;4.05;;
70920;SDS011;58572;48.110;19.838;2023-09-08T11:39:43;6.45;;;3.38;;
70920;SDS011;58572;48.110;19.838;2023-09-08T11:42:11;5.85;;;3.55;;
70920;SDS011;58572;48.110;19.838;2023-09-08T11:44:40;7.80;;;3.85;;
70920;SDS011;58572;48.110;19.838;2023-09-08T11:47:09;5.80;;;3.50;;
70920;SDS011;58572;48.110;19.838;2023-09-08T11:49:39;5.47;;;3.30;;
70920;SDS011;58572;48.110;19.838;2023-09-08T11:52:07;7.13;;;3.63;;
70920;SDS011;58572;48.110;19.838;2023-09-08T11:54:35;7.68;;;3.92;;
70920;SDS011;58572;48.110;19.838;2023-09-08T11:57:05;8.52;;;3.58;;
70920;SDS011;58572;48.110;19.838;2023-09-08T11:59:34;7.28;;;3.80;;
70920;SDS011;58572;48.110;19.838;2023-09-08T12:02:02;6.53;;;3.80;;
70920;SDS011;58572;48.110;19.838;2023-09-08T12:04:29;7.75;;;3.97;;
70920;SDS011;58572;48.110;19.838;2023-09-08T12:06:58;6.35;;;3.70;;
70920;SDS011;58572;48.110;19.838;2023-09-08T12:09:25;5.72;;;3.53;;
70920;SDS011;58572;48.110;19.838;2023-09-08T12:11:53;5.75;;;3.53;;
70920;SDS011;58572;48.110;19.838;2023-09-08T12:14:20;5.18;;;3.55;;
70920;SDS011;58572;48.110;19.838;2023-09-08T12:16:47;6.22;;;3.45;;
70920;SDS011;58572;48.110;19.838;2023-09-08T12:22:04;5.88;;;3.30;;
70920;SDS011;58572;48.110;19.838;2023-09-08T12:27:28;7.50;;;3.60;;
70920;SDS011;58572;48.110;19.838;2023-09-08T12:29:58;6.85;;;3.58;;
70920;SDS011;58572;48.110;19.838;2023-09-08T12:32:29;7.43;;;3.65;;
70920;SDS011;58572;48.110;19.838;2023-09-08T12:34:58;5.95;;;3.28;;
70920;SDS011;58572;48.110;19.838;2023-09-08T12:37:28;6.53;;;3.53;;
70920;SDS011;58572;48.110;19.838;2023-09-08T12:39:56;7.38;;;3.78;;
70920;SDS011;58572;48.110;19.838;2023-09-08T12:42:26;7.07;;;3.63;;
70920;SDS011;58572;48.110;19.838;2023-09-08T12:44:54;8.13;;;3.45;;
70920;SDS011;58572;48.110;19.838;2023-09-08T12:47:24;5.45;;;3.55;;
70920;SDS011;58572;48.110;19.838;2023-09-08T12:49:52;5.75;;;3.28;;
70920;SDS011;58572;48.110;19.838;2023-09-08T12:52:21;5.10;;;3.58;;
70920;SDS011;58572;48.110;19.838;2023-09-08T12:54:49;6.00;;;3.60;;
70920;SDS011;58572;48.110;19.838;2023-09-08T12:57:16;6.55;;;3.72;;
70920;SDS011;58572;48.110;19.838;2023-09-08T12:59:44;5.32;;;3.28;;
70920;SDS011;58572;48.110;19.838;2023-09-08T13:02:11;5.57;;;3.28;;
70920;SDS011;58572;48.110;19.838;2023-09-08T13:04:39;6.45;;;3.53;;
70920;SDS011;58572;48.110;19.838;2023-09-08T13:07:07;6.50;;;3.95;;
70920;SDS011;58572;48.110;19.838;2023-09-08T13:09:34;5.97;;;3.60;;
70920;SDS011;58572;48.110;19.838;2023-09-08T13:12:03;7.03;;;3.67;;
70920;SDS011;58572;48.110;19.838;2023-09-08T13:14:30;5.70;;;3.55;;
70920;SDS011;58572;48.110;19.838;2023-09-08T13:16:58;6.43;;;3.53;;
70920;SDS011;58572;48.110;19.838;2023-09-08T13:21:51;5.85;;;3.67;;
70920;SDS011;58572;48.110;19.838;2023-09-08T13:24:19;7.25;;;3.50;;
70920;SDS011;58572;48.110;19.838;2023-09-08T13:26:47;5.80;;;3.50;;
70920;SDS011;58572;48.110;19.838;2023-09-08T13:29:16;6.85;;;2.92;;
70920;SDS011;58572;48.110;19.838;2023-09-08T13:31:43;6.13;;;3.70;;
70920;SDS011;58572;48.110;19.838;2023-09-08T13:36:37;6.65;;;3.08;;
70920;SDS011;58572;48.110;19.838;2023-09-08T13:39:05;6.85;;;3.33;;
70920;SDS011;58572;48.110;19.838;2023-09-08T13:41:44;6.25;;;3.22;;
70920;SDS011;58572;48.110;19.838;2023-09-08T13:44:12;5.53;;;3.30;;
70920;SDS011;58572;48.110;19.838;2023-09-08T13:46:41;6.95;;;3.55;;
70920;SDS011;58572;48.110;19.838;2023-09-08T13:49:09;5.35;;;3.40;;
70920;SDS011;58572;48.110;19.838;2023-09-08T13:51:36;6.15;;;3.22;;
70920;SDS011;58572;48.110;19.838;2023-09-08T13:54:05;4.95;;;3.22;;
70920;SDS011;58572;48.110;19.838;2023-09-08T13:56:33;7.65;;;3.40;;
70920;SDS011;58572;48.110;19.838;2023-09-08T13:59:00;6.00;;;3.78;;
70920;SDS011;58572;48.110;19.838;2023-09-08T14:01:28;5.68;;;3.15;;
70920;SDS011;58572;48.110;19.838;2023-09-08T14:03:58;5.85;;;3.30;;
70920;SDS011;58572;48.110;19.838;2023-09-08T14:06:25;6.22;;;3.47;;
70920;SDS011;58572;48.110;19.838;2023-09-08T14:08:53;5.47;;;3.45;;
70920;SDS011;58572;48.110;19.838;2023-09-08T14:11:21;7.88;;;3.08;;
70920;SDS011;58572;48.110;19.838;2023-09-08T14:13:48;6.00;;;3.13;;
70920;SDS011;58572;48.110;19.838;2023-09-08T14:16:16;5.60;;;3.70;;
70920;SDS011;58572;48.110;19.838;2023-09-08T14:18:46;7.38;;;3.30;;
70920;SDS011;58572;48.110;19.838;2023-09-08T14:21:14;7.18;;;3.67;;
70920;SDS011;58572;48.110;19.838;2023-09-08T14:23:41;6.03;;;3.55;;
70920;SDS011;58572;48.110;19.838;2023-09-08T14:26:12;6.35;;;3.40;;
70920;SDS011;58572;48.110;19.838;2023-09-08T14:28:39;4.85;;;3.35;;
70920;SDS011;58572;48.110;19.838;2023-09-08T14:31:08;5.88;;;3.28;;
70920;SDS011;58572;48.110;19.838;2023-09-08T14:36:03;6.55;;;3.53;;
70920;SDS011;58572;48.110;19.838;2023-09-08T14:38:32;8.55;;;3.67;;
70920;SDS011;58572;48.110;19.838;2023-09-08T14:40:59;6.60;;;3.83;;
70920;SDS011;58572;48.110;19.838;2023-09-08T14:43:29;6.70;;;4.20;;
70920;SDS011;58572;48.110;19.838;2023-09-08T14:45:57;6.25;;;3.40;;
70920;SDS011;58572;48.110;19.838;2023-09-08T14:48:24;7.82;;;3.63;;
70920;SDS011;58572;48.110;19.838;2023-09-08T14:50:51;6.88;;;3.70;;
70920;SDS011;58572;48.110;19.838;2023-09-08T14:53:19;6.30;;;3.40;;
70920;SDS011;58572;48.110;19.838;2023-09-08T14:58:15;5.47;;;3.38;;
70920;SDS011;58572;48.110;19.838;2023-09-08T15:00:42;6.85;;;3.60;;
70920;SDS011;58572;48.110;19.838;2023-09-08T15:03:11;6.88;;;3.70;;
70920;SDS011;58572;48.110;19.838;2023-09-08T15:08:05;5.63;;;3.42;;
70920;SDS011;58572;48.110;19.838;2023-09-08T15:13:01;6.47;;;3.20;;
70920;SDS011;58572;48.110;19.838;2023-09-08T15:15:28;5.97;;;3.33;;
70920;SDS011;58572;48.110;19.838;2023-09-08T15:17:55;5.90;;;3.53;;
70920;SDS011;58572;48.110;19.838;2023-09-08T15:20:23;5.85;;;3.50;;
70920;SDS011;58572;48.110;19.838;2023-09-08T15:22:50;9.95;;;3.40;;
70920;SDS011;58572;48.110;19.838;2023-09-08T15:25:17;6.80;;;3.17;;
70920;SDS011;58572;48.110;19.838;2023-09-08T15:30:13;6.78;;;3.38;;
70920;SDS011;58572;48.110;19.838;2023-09-08T15:32:41;5.50;;;3.53;;
70920;SDS011;58572;48.110;19.838;2023-09-08T15:35:08;5.80;;;3.40;;
70920;SDS011;58572;48.110;19.838;2023-09-08T15:37:36;6.38;;;3.33;;
70920;SDS011;58572;48.110;19.838;2023-09-08T15:40:04;5.80;;;3.42;;